Time;durP1;ratioP1;P1;durP2;ratioP2;P2;SDS_P1;SDS_P2;PMS_P1;PMS_P2;Temp;Humidity;BMP_temperature;BMP_pressure;BME280_temperature;BME280_humidity;BME280_pressure;Samples;Min_cycle;Max_cycle;Signal;HPM_P1;HPM_P2
2021/10/05 00:02:09;;;;;;;32.55;19.38;;;10.20;99.90;;;;;;4997270;28;20548;-68
2021/10/05 00:04:36;;;;;;;32.47;18.55;;;10.20;99.90;;;;;;5000682;28;20061;-68
2021/10/05 00:07:03;;;;;;;27.83;18.52;;;10.30;99.90;;;;;;4979364;28;20037;-68
2021/10/05 00:09:30;;;;;;;30.80;19.30;;;10.20;99.90;;;;;;4997728;28;20213;-68
2021/10/05 00:11:58;;;;;;;31.88;19.48;;;10.20;99.90;;;;;;4997655;28;20101;-68
2021/10/05 00:14:25;;;;;;;30.50;20.20;;;10.10;99.90;;;;;;4997844;28;20049;-68
2021/10/05 00:16:52;;;;;;;33.15;19.98;;;10.10;99.90;;;;;;4997523;28;20168;-68
2021/10/05 00:19:19;;;;;;;35.53;20.98;;;10.10;99.90;;;;;;4989509;28;20046;-68
2021/10/05 00:21:46;;;;;;;33.63;21.90;;;10.00;99.90;;;;;;4980315;28;20108;-68
2021/10/05 00:24:13;;;;;;;34.67;20.75;;;10.00;99.90;;;;;;4993324;28;20141;-68
2021/10/05 00:26:40;;;;;;;37.03;22.70;;;9.90;99.90;;;;;;4992562;28;20034;-67
2021/10/05 00:29:06;;;;;;;38.70;23.73;;;9.90;99.90;;;;;;4962879;28;20069;-67
2021/10/05 00:31:33;;;;;;;42.28;24.00;;;10.00;99.90;;;;;;4981385;28;20065;-68
2021/10/05 00:34:01;;;;;;;42.33;24.17;;;9.90;99.90;;;;;;4995553;28;20070;-68
2021/10/05 00:36:27;;;;;;;41.70;24.25;;;10.00;99.90;;;;;;4980470;28;20542;-68
2021/10/05 00:38:54;;;;;;;42.78;24.52;;;10.00;99.90;;;;;;4998306;28;20053;-68
2021/10/05 00:41:22;;;;;;;41.72;24.05;;;9.90;99.90;;;;;;4979531;28;20073;-68
2021/10/05 00:43:49;;;;;;;48.22;25.63;;;9.90;99.90;;;;;;4978470;28;20045;-68
2021/10/05 00:46:18;;;;;;;50.75;25.40;;;9.80;99.90;;;;;;4980033;28;20057;-68
2021/10/05 00:48:45;;;;;;;45.60;25.13;;;9.90;99.90;;;;;;4981513;28;20038;-68
2021/10/05 00:51:12;;;;;;;51.30;25.25;;;9.90;99.90;;;;;;4982595;28;20050;-68
2021/10/05 00:53:39;;;;;;;50.20;24.95;;;9.90;99.90;;;;;;4984254;28;20035;-68
2021/10/05 00:56:07;;;;;;;46.33;24.88;;;9.80;99.90;;;;;;4992983;28;20046;-67
2021/10/05 00:58:34;;;;;;;45.60;25.55;;;9.80;99.90;;;;;;4977731;28;20711;-68
2021/10/05 01:01:01;;;;;;;46.88;25.17;;;9.80;99.90;;;;;;4985938;28;20058;-68
2021/10/05 01:03:28;;;;;;;54.20;27.35;;;9.80;99.90;;;;;;4981010;28;20352;-68
2021/10/05 01:05:55;;;;;;;45.75;24.42;;;9.80;99.90;;;;;;4981192;28;20563;-68
2021/10/05 01:08:22;;;;;;;49.67;27.02;;;9.80;99.90;;;;;;4997516;28;20095;-68
2021/10/05 01:10:49;;;;;;;50.58;26.85;;;9.80;99.90;;;;;;4963521;28;20056;-68
2021/10/05 01:13:16;;;;;;;48.55;26.58;;;9.60;99.90;;;;;;4995985;28;20073;-68
2021/10/05 01:15:43;;;;;;;50.60;26.17;;;9.80;99.90;;;;;;4998461;28;20073;-70
2021/10/05 01:18:10;;;;;;;51.85;26.23;;;9.80;99.90;;;;;;4995666;28;20448;-67
2021/10/05 01:20:58;;;;;;;49.83;24.58;;;9.80;99.90;;;;;;4976623;28;20086;-67
2021/10/05 01:23:26;;;;;;;47.58;26.70;;;9.80;99.90;;;;;;4981256;28;20046;-67
2021/10/05 01:25:53;;;;;;;48.35;26.08;;;9.80;99.90;;;;;;4983555;28;20130;-67
2021/10/05 01:28:22;;;;;;;54.65;26.58;;;9.90;99.90;;;;;;4992654;28;20037;-67
2021/10/05 01:30:50;;;;;;;50.97;26.17;;;9.90;99.90;;;;;;4979306;28;20111;-67
2021/10/05 01:33:18;;;;;;;50.92;27.45;;;9.90;99.90;;;;;;4993508;28;20370;-67
2021/10/05 01:35:45;;;;;;;45.97;25.83;;;9.90;99.90;;;;;;4994725;28;20299;-68
2021/10/05 01:38:12;;;;;;;52.75;26.00;;;9.90;99.90;;;;;;4995781;28;20034;-67
2021/10/05 01:40:39;;;;;;;47.60;26.80;;;10.00;99.90;;;;;;4995769;28;20103;-67
2021/10/05 01:43:06;;;;;;;50.03;26.63;;;10.00;99.90;;;;;;4995107;28;20481;-68
2021/10/05 01:45:33;;;;;;;44.28;24.52;;;9.90;99.90;;;;;;4994887;28;20339;-68
2021/10/05 01:48:00;;;;;;;42.75;25.75;;;10.00;99.90;;;;;;4996192;28;20106;-67
2021/10/05 01:50:27;;;;;;;42.58;23.95;;;10.00;99.90;;;;;;4978209;28;20067;-68
2021/10/05 01:52:54;;;;;;;47.55;26.30;;;9.90;99.90;;;;;;4992713;28;20065;-68
2021/10/05 01:55:23;;;;;;;42.20;23.90;;;9.90;99.90;;;;;;4995492;28;20044;-68
2021/10/05 01:57:50;;;;;;;43.72;24.27;;;9.90;99.90;;;;;;4993550;28;20064;-69
2021/10/05 02:00:17;;;;;;;42.58;24.25;;;10.00;99.90;;;;;;4977895;28;20045;-68
2021/10/05 02:02:44;;;;;;;49.13;27.23;;;10.00;99.90;;;;;;4977222;28;20085;-69
2021/10/05 02:05:11;;;;;;;42.95;24.30;;;10.00;99.90;;;;;;4995311;28;20542;-69
2021/10/05 02:07:38;;;;;;;43.08;26.13;;;9.90;99.90;;;;;;4993618;28;20049;-69
2021/10/05 02:10:08;;;;;;;41.92;24.58;;;10.00;99.90;;;;;;4977612;28;20050;-69
2021/10/05 02:12:35;;;;;;;42.17;25.88;;;10.10;99.90;;;;;;4994728;28;20046;-68
2021/10/05 02:15:03;;;;;;;40.30;23.20;;;10.00;99.90;;;;;;4979089;28;20132;-69
2021/10/05 02:17:30;;;;;;;41.50;24.42;;;10.10;99.90;;;;;;4995138;28;20050;-69
2021/10/05 02:19:57;;;;;;;39.58;24.30;;;10.10;99.90;;;;;;4994195;28;20251;-69
2021/10/05 02:22:24;;;;;;;38.40;23.15;;;10.10;99.90;;;;;;4995250;28;20419;-68
2021/10/05 02:24:50;;;;;;;46.47;26.02;;;10.20;99.90;;;;;;4992140;28;20061;-69
2021/10/05 02:27:20;;;;;;;41.90;24.92;;;10.10;99.90;;;;;;4977521;28;20380;-69
2021/10/05 02:29:47;;;;;;;43.47;24.38;;;10.10;99.90;;;;;;4965948;28;20072;-69
2021/10/05 02:32:14;;;;;;;40.80;23.35;;;10.10;99.90;;;;;;4976259;28;20054;-68
2021/10/05 02:34:42;;;;;;;46.13;25.38;;;10.10;99.90;;;;;;4981320;28;20513;-69
2021/10/05 02:37:10;;;;;;;43.47;25.50;;;10.10;99.90;;;;;;4995163;28;20132;-69
2021/10/05 02:39:38;;;;;;;43.28;24.15;;;10.10;99.90;;;;;;4970296;28;20105;-69
2021/10/05 02:42:05;;;;;;;41.20;24.23;;;10.00;99.90;;;;;;4997985;28;20410;-69
2021/10/05 02:44:32;;;;;;;43.70;24.42;;;10.10;99.90;;;;;;4999991;28;20068;-69
2021/10/05 02:46:59;;;;;;;44.13;24.70;;;10.00;99.90;;;;;;4980776;28;20072;-68
2021/10/05 02:49:26;;;;;;;45.03;24.67;;;10.00;99.90;;;;;;4995825;28;20046;-69
2021/10/05 02:51:53;;;;;;;47.10;25.33;;;10.10;99.90;;;;;;4982483;28;20045;-69
2021/10/05 02:54:20;;;;;;;45.05;24.63;;;10.00;99.90;;;;;;4996348;28;20338;-68
2021/10/05 02:56:47;;;;;;;49.60;26.05;;;10.10;99.90;;;;;;4998781;28;20049;-69
2021/10/05 02:59:15;;;;;;;43.33;25.02;;;10.00;99.90;;;;;;4994247;28;20081;-69
2021/10/05 03:01:42;;;;;;;45.30;24.45;;;10.00;99.90;;;;;;4992630;28;20054;-69
2021/10/05 03:04:10;;;;;;;47.15;26.48;;;10.00;99.90;;;;;;4997409;28;20301;-68
2021/10/05 03:06:37;;;;;;;49.25;25.52;;;10.00;99.90;;;;;;4980884;28;20050;-69
2021/10/05 03:09:04;;;;;;;48.33;26.45;;;10.00;99.90;;;;;;4998446;28;20046;-68
2021/10/05 03:11:31;;;;;;;48.40;26.05;;;10.00;99.90;;;;;;4989428;28;20065;-68
2021/10/05 03:13:57;;;;;;;48.33;25.17;;;10.00;99.90;;;;;;4996035;28;20053;-68
2021/10/05 03:16:24;;;;;;;42.60;23.42;;;10.00;99.90;;;;;;4971114;28;20053;-68
2021/10/05 03:18:51;;;;;;;50.90;25.70;;;10.00;99.90;;;;;;4992298;28;20081;-69
2021/10/05 03:21:19;;;;;;;45.72;26.05;;;10.10;99.90;;;;;;4990089;28;20100;-68
2021/10/05 03:23:46;;;;;;;46.40;23.00;;;10.10;99.90;;;;;;4982910;28;20048;-68
2021/10/05 03:26:13;;;;;;;40.15;22.58;;;10.10;99.90;;;;;;4998948;28;20108;-68
2021/10/05 03:28:40;;;;;;;40.10;23.13;;;10.20;99.90;;;;;;4999023;28;20371;-68
2021/10/05 03:31:11;;;;;;;47.70;23.83;;;10.20;99.90;;;;;;4972541;28;20064;-69
2021/10/05 03:33:42;;;;;;;44.28;24.75;;;10.20;99.90;;;;;;4999816;28;20113;-69
2021/10/05 03:36:09;;;;;;;47.78;25.33;;;10.20;99.90;;;;;;4995123;28;20099;-68
2021/10/05 03:38:37;;;;;;;46.85;26.17;;;10.20;99.90;;;;;;5000795;28;20433;-69
2021/10/05 03:41:05;;;;;;;47.63;27.02;;;10.10;99.90;;;;;;4965365;28;20391;-69
2021/10/05 03:43:33;;;;;;;53.60;28.08;;;10.10;99.90;;;;;;4998976;28;20414;-69
2021/10/05 03:46:00;;;;;;;51.17;28.30;;;10.00;99.90;;;;;;4989194;28;20133;-69
2021/10/05 03:48:26;;;;;;;56.40;29.02;;;10.00;99.90;;;;;;4977044;28;20038;-68
2021/10/05 03:50:54;;;;;;;60.80;29.45;;;9.90;99.90;;;;;;4978979;28;20752;-69
2021/10/05 03:53:21;;;;;;;63.45;29.48;;;10.00;99.90;;;;;;4998161;28;20141;-70
2021/10/05 03:55:56;;;;;;;66.13;31.30;;;9.90;99.90;;;;;;4998241;28;20050;-69
2021/10/05 03:58:24;;;;;;;65.68;30.35;;;9.80;99.90;;;;;;5000376;28;20487;-69
2021/10/05 04:00:51;;;;;;;66.22;31.85;;;9.80;99.90;;;;;;4982333;28;20049;-67
2021/10/05 04:03:21;;;;;;;68.10;32.42;;;9.70;99.90;;;;;;5000181;28;20054;-67
2021/10/05 04:05:48;;;;;;;73.10;32.53;;;9.70;99.90;;;;;;4997173;28;20049;-67
2021/10/05 04:08:15;;;;;;;71.43;34.58;;;9.70;99.90;;;;;;4997062;28;20470;-67
2021/10/05 04:10:41;;;;;;;67.63;31.45;;;9.70;99.90;;;;;;4998086;28;20046;-68
2021/10/05 04:13:08;;;;;;;72.53;33.13;;;9.70;99.90;;;;;;4982737;28;20538;-67
2021/10/05 04:15:35;;;;;;;58.22;29.92;;;9.70;99.90;;;;;;4996170;28;20124;-67
2021/10/05 04:18:02;;;;;;;62.08;29.67;;;9.70;99.90;;;;;;4980739;28;20141;-67
2021/10/05 04:20:29;;;;;;;53.17;27.88;;;9.80;99.90;;;;;;4990724;28;20125;-68
2021/10/05 04:22:56;;;;;;;52.75;28.02;;;9.80;99.90;;;;;;4997983;28;20057;-68
2021/10/05 04:25:24;;;;;;;52.00;26.65;;;9.80;99.90;;;;;;4981646;28;20056;-68
2021/10/05 04:27:51;;;;;;;50.17;25.90;;;9.90;99.90;;;;;;4998701;28;20054;-68
2021/10/05 04:30:20;;;;;;;41.28;24.08;;;9.90;99.90;;;;;;4998124;28;20057;-68
2021/10/05 04:32:47;;;;;;;50.00;25.35;;;9.90;99.90;;;;;;4980874;28;20042;-68
2021/10/05 04:35:13;;;;;;;52.17;25.52;;;9.90;99.90;;;;;;5000153;28;20060;-68
2021/10/05 04:37:40;;;;;;;45.08;23.05;;;9.90;99.90;;;;;;4981079;28;20065;-67
2021/10/05 04:40:08;;;;;;;45.08;24.17;;;9.90;99.90;;;;;;4999457;28;20068;-68
2021/10/05 04:42:35;;;;;;;46.47;24.35;;;9.90;99.90;;;;;;5000026;28;20057;-67
2021/10/05 04:45:03;;;;;;;40.85;22.40;;;9.90;99.90;;;;;;4975153;28;20049;-69
2021/10/05 04:47:30;;;;;;;44.60;22.77;;;9.90;99.90;;;;;;4996031;28;20499;-69
2021/10/05 04:49:57;;;;;;;40.70;20.95;;;9.90;99.90;;;;;;4989486;28;20048;-69
2021/10/05 04:52:24;;;;;;;42.25;23.05;;;10.00;99.90;;;;;;4995816;28;20065;-68
2021/10/05 04:54:51;;;;;;;41.92;22.83;;;10.00;99.90;;;;;;4980988;28;20049;-68
2021/10/05 04:57:18;;;;;;;45.13;24.23;;;10.00;99.90;;;;;;4979188;28;20054;-68
2021/10/05 04:59:45;;;;;;;49.25;23.58;;;10.10;99.90;;;;;;4995619;28;20042;-68
2021/10/05 05:02:12;;;;;;;43.55;22.90;;;10.10;99.90;;;;;;4997109;28;20256;-68
2021/10/05 05:04:39;;;;;;;45.33;23.45;;;10.00;99.90;;;;;;4996136;28;20466;-68
2021/10/05 05:07:05;;;;;;;46.85;24.58;;;10.00;99.90;;;;;;4973679;28;20046;-68
2021/10/05 05:09:32;;;;;;;46.95;23.77;;;10.00;99.90;;;;;;4987470;28;20053;-68
2021/10/05 05:11:59;;;;;;;44.85;22.98;;;10.00;99.90;;;;;;4996086;28;20048;-68
2021/10/05 05:14:26;;;;;;;45.60;23.58;;;10.00;99.90;;;;;;4987529;28;20060;-68
2021/10/05 05:16:53;;;;;;;43.45;23.63;;;10.10;99.90;;;;;;4975286;28;20060;-69
2021/10/05 05:19:20;;;;;;;43.30;23.65;;;10.10;99.90;;;;;;4985090;28;20085;-68
2021/10/05 05:21:47;;;;;;;43.80;22.15;;;10.00;99.90;;;;;;4977232;28;20053;-68
2021/10/05 05:24:14;;;;;;;39.25;20.95;;;9.90;99.90;;;;;;4976722;28;20399;-67
2021/10/05 05:26:41;;;;;;;42.50;21.63;;;10.00;99.90;;;;;;4943920;28;20538;-70
2021/10/05 05:29:08;;;;;;;38.40;20.88;;;10.00;99.90;;;;;;4976892;28;20049;-67
2021/10/05 05:31:35;;;;;;;40.13;22.38;;;10.00;99.90;;;;;;4978471;28;20057;-67
2021/10/05 05:34:01;;;;;;;38.90;21.75;;;10.00;99.90;;;;;;4960975;28;20050;-67
2021/10/05 05:36:28;;;;;;;41.50;21.25;;;9.90;99.90;;;;;;4975573;28;20499;-67
2021/10/05 05:39:00;;;;;;;35.85;20.55;;;10.00;99.90;;;;;;4960633;28;20054;-68
2021/10/05 05:41:27;;;;;;;36.55;19.48;;;9.90;99.90;;;;;;4943619;28;20053;-68
2021/10/05 05:43:54;;;;;;;32.78;18.25;;;9.90;99.90;;;;;;4979359;28;20526;-68
2021/10/05 05:46:21;;;;;;;34.53;18.92;;;10.00;99.90;;;;;;4995530;28;20223;-68
2021/10/05 05:48:48;;;;;;;31.08;17.90;;;10.10;99.90;;;;;;4973980;28;20081;-68
2021/10/05 05:51:15;;;;;;;33.80;18.40;;;10.00;99.90;;;;;;4994364;28;20045;-70
2021/10/05 05:53:42;;;;;;;26.92;15.98;;;10.00;99.90;;;;;;4996495;28;20071;-69
2021/10/05 05:56:08;;;;;;;29.00;17.80;;;10.00;99.90;;;;;;4979413;28;20049;-68
2021/10/05 05:58:35;;;;;;;26.45;16.52;;;10.10;99.90;;;;;;4994700;28;20645;-68
2021/10/05 06:01:03;;;;;;;29.42;17.38;;;10.10;99.90;;;;;;4979342;28;20057;-68
2021/10/05 06:03:30;;;;;;;33.35;18.45;;;10.10;99.90;;;;;;4996039;28;20057;-68
2021/10/05 06:05:57;;;;;;;29.80;17.60;;;10.20;99.90;;;;;;4977746;28;20042;-67
2021/10/05 06:08:24;;;;;;;36.47;19.88;;;10.20;99.90;;;;;;4994916;28;20045;-68
2021/10/05 06:10:51;;;;;;;32.67;19.30;;;10.20;99.90;;;;;;4996004;28;20042;-68
2021/10/05 06:13:18;;;;;;;29.73;18.00;;;10.20;99.90;;;;;;4997903;28;20052;-68
2021/10/05 06:15:45;;;;;;;29.05;17.85;;;10.20;99.90;;;;;;4991827;28;20141;-68
2021/10/05 06:18:12;;;;;;;30.02;18.48;;;10.10;99.90;;;;;;4991858;28;20065;-68
2021/10/05 06:20:39;;;;;;;26.58;15.07;;;10.10;99.90;;;;;;4984467;28;20045;-68
2021/10/05 06:23:05;;;;;;;25.67;15.77;;;10.10;99.90;;;;;;4987045;28;20066;-70
2021/10/05 06:25:39;;;;;;;26.10;15.73;;;10.30;99.90;;;;;;4984221;28;20054;-70
2021/10/05 06:28:07;;;;;;;24.58;15.05;;;10.30;99.90;;;;;;4989159;28;21947;-68
2021/10/05 06:30:34;;;;;;;22.88;13.65;;;10.40;99.90;;;;;;4991946;28;20125;-68
2021/10/05 06:33:01;;;;;;;20.60;12.82;;;10.30;99.90;;;;;;4995978;28;20054;-69
2021/10/05 06:35:30;;;;;;;20.27;12.13;;;10.40;99.90;;;;;;4966409;28;20062;-70
2021/10/05 06:37:59;;;;;;;20.75;12.77;;;10.40;99.90;;;;;;4996299;28;20077;-71
2021/10/05 06:40:29;;;;;;;18.02;12.88;;;10.40;99.90;;;;;;4995460;28;20126;-70
2021/10/05 06:42:56;;;;;;;21.30;13.57;;;10.40;99.90;;;;;;4996391;28;20441;-69
2021/10/05 06:45:24;;;;;;;19.95;11.90;;;10.30;99.90;;;;;;4966316;28;20035;-69
2021/10/05 06:47:51;;;;;;;15.30;10.98;;;10.30;99.90;;;;;;4977710;28;20058;-70
2021/10/05 06:50:19;;;;;;;15.73;10.90;;;10.30;99.90;;;;;;4975660;28;20046;-70
2021/10/05 06:52:46;;;;;;;17.88;10.90;;;10.30;99.90;;;;;;4977471;28;20054;-69
2021/10/05 06:55:14;;;;;;;19.60;10.40;;;10.30;99.90;;;;;;4960135;28;20086;-70
2021/10/05 06:57:41;;;;;;;13.80;9.93;;;10.20;99.90;;;;;;4993692;28;20049;-70
2021/10/05 07:00:16;;;;;;;13.55;9.68;;;10.30;99.90;;;;;;4996812;28;20057;-70
2021/10/05 07:02:45;;;;;;;14.45;9.52;;;10.30;99.90;;;;;;4997119;28;20081;-70
2021/10/05 07:05:18;;;;;;;13.68;9.13;;;10.30;99.90;;;;;;4978922;28;20530;-70
2021/10/05 07:07:47;;;;;;;15.75;9.57;;;10.40;99.90;;;;;;4994928;28;20162;-70
2021/10/05 07:10:17;;;;;;;12.73;9.05;;;10.40;99.90;;;;;;4979393;28;20140;-69
2021/10/05 07:12:44;;;;;;;10.70;7.97;;;10.40;99.90;;;;;;4995617;28;20049;-70
2021/10/05 07:15:11;;;;;;;11.73;7.93;;;10.40;99.90;;;;;;4983781;28;20047;-70
2021/10/05 07:17:38;;;;;;;10.32;7.43;;;10.50;99.90;;;;;;4980906;28;20042;-67
2021/10/05 07:20:07;;;;;;;10.18;7.63;;;10.50;99.90;;;;;;4981954;28;20143;-70
2021/10/05 07:22:34;;;;;;;11.40;7.97;;;10.50;99.90;;;;;;4979190;28;20125;-69
2021/10/05 07:25:02;;;;;;;11.27;7.20;;;10.50;99.90;;;;;;4981102;28;20157;-69
2021/10/05 07:27:34;;;;;;;9.98;6.47;;;10.60;99.90;;;;;;4980658;28;20042;-71
2021/10/05 07:30:03;;;;;;;8.65;6.38;;;10.70;99.90;;;;;;4998400;28;20062;-69
2021/10/05 07:32:30;;;;;;;8.65;6.20;;;10.70;99.90;;;;;;4996766;28;20359;-68
2021/10/05 07:34:57;;;;;;;7.97;6.32;;;10.80;99.90;;;;;;4999282;28;20919;-69
2021/10/05 07:37:25;;;;;;;10.10;6.82;;;10.80;99.90;;;;;;4964601;28;20065;-70
2021/10/05 07:39:52;;;;;;;9.15;5.38;;;10.80;99.90;;;;;;4999288;28;20061;-68
2021/10/05 07:42:20;;;;;;;8.27;6.25;;;10.80;99.90;;;;;;4975103;28;20064;-69
2021/10/05 07:44:49;;;;;;;7.22;5.63;;;10.80;99.90;;;;;;4974031;28;20046;-69
2021/10/05 07:47:16;;;;;;;9.00;7.28;;;10.80;99.90;;;;;;4996139;28;20133;-70
2021/10/05 07:49:43;;;;;;;8.02;6.45;;;10.80;99.90;;;;;;4978066;28;20038;-69
2021/10/05 07:52:10;;;;;;;7.18;5.38;;;10.80;99.90;;;;;;4996097;28;20077;-71
2021/10/05 07:54:37;;;;;;;9.48;6.85;;;10.90;99.90;;;;;;4997062;28;20061;-70
2021/10/05 07:57:06;;;;;;;8.75;6.70;;;10.80;99.90;;;;;;4996947;28;20045;-68
2021/10/05 07:59:32;;;;;;;8.57;6.07;;;10.90;99.90;;;;;;4999305;28;20077;-69
2021/10/05 08:02:00;;;;;;;9.32;6.25;;;10.90;99.90;;;;;;4963589;28;20431;-69
2021/10/05 08:04:27;;;;;;;8.48;5.35;;;10.90;99.90;;;;;;4973980;28;20039;-70
2021/10/05 08:06:54;;;;;;;7.50;5.75;;;10.90;99.90;;;;;;4970801;28;20041;-68
2021/10/05 08:09:21;;;;;;;7.88;6.43;;;10.90;99.90;;;;;;4997719;28;20053;-70
2021/10/05 08:11:48;;;;;;;7.25;5.63;;;10.90;99.90;;;;;;4982889;28;20049;-69
2021/10/05 08:14:16;;;;;;;8.95;5.95;;;10.90;99.90;;;;;;4980636;28;20113;-69
2021/10/05 08:16:45;;;;;;;6.93;5.50;;;11.00;99.90;;;;;;4979918;28;20042;-70
2021/10/05 08:19:12;;;;;;;6.15;5.40;;;11.20;99.90;;;;;;4964177;28;20041;-69
2021/10/05 08:21:39;;;;;;;6.43;5.15;;;11.30;99.90;;;;;;4988428;28;20038;-70
2021/10/05 08:24:06;;;;;;;6.07;4.47;;;11.30;99.90;;;;;;4978375;28;20133;-69
2021/10/05 08:26:33;;;;;;;7.45;4.72;;;11.30;99.90;;;;;;4976265;28;20050;-70
2021/10/05 08:29:00;;;;;;;6.57;4.88;;;11.30;99.90;;;;;;4980199;28;20199;-69
2021/10/05 08:31:27;;;;;;;6.22;4.47;;;11.40;99.90;;;;;;4995346;28;20050;-70
2021/10/05 08:33:54;;;;;;;7.45;5.10;;;11.40;99.90;;;;;;4997477;28;20389;-69
2021/10/05 08:36:21;;;;;;;5.65;4.88;;;11.30;99.90;;;;;;5009530;28;20084;-69
2021/10/05 08:38:48;;;;;;;6.22;4.82;;;11.30;99.90;;;;;;5016976;28;20041;-70
2021/10/05 08:41:15;;;;;;;6.35;4.93;;;11.40;99.90;;;;;;4998495;28;20074;-69
2021/10/05 08:43:42;;;;;;;8.90;4.57;;;11.40;99.90;;;;;;4980203;28;20363;-70
2021/10/05 08:46:09;;;;;;;5.88;4.43;;;11.30;99.90;;;;;;4976454;28;20395;-70
2021/10/05 08:48:37;;;;;;;5.20;4.18;;;11.30;99.90;;;;;;4962411;28;20072;-70
2021/10/05 08:51:05;;;;;;;5.65;4.00;;;11.30;99.90;;;;;;4995898;28;20049;-70
2021/10/05 08:53:39;;;;;;;5.03;3.95;;;11.40;99.90;;;;;;4999950;28;20511;-69
2021/10/05 08:56:08;;;;;;;4.72;4.10;;;11.40;99.90;;;;;;4997092;28;20088;-70
2021/10/05 08:58:36;;;;;;;4.93;4.30;;;11.40;99.90;;;;;;5012537;28;20438;-71
2021/10/05 09:01:12;;;;;;;4.40;3.63;;;11.40;99.90;;;;;;4994391;28;20077;-69
2021/10/05 09:03:54;;;;;;;4.32;3.60;;;11.50;99.90;;;;;;4981148;28;20553;-70
2021/10/05 09:06:23;;;;;;;6.03;3.35;;;11.50;99.90;;;;;;4996430;28;20069;-70
2021/10/05 09:08:53;;;;;;;5.30;4.10;;;11.50;99.90;;;;;;4996998;28;20057;-70
2021/10/05 09:11:24;;;;;;;3.70;3.33;;;11.50;99.90;;;;;;4996417;28;20465;-70
2021/10/05 09:13:54;;;;;;;6.28;4.03;;;11.40;99.90;;;;;;4993980;28;20077;-70
2021/10/05 09:16:23;;;;;;;6.72;4.32;;;11.50;99.90;;;;;;4995517;28;20057;-70
2021/10/05 09:18:58;;;;;;;5.65;3.80;;;11.60;99.90;;;;;;4989887;28;20088;-70
2021/10/05 09:21:35;;;;;;;4.23;3.83;;;11.80;99.90;;;;;;4961752;28;20141;-70
2021/10/05 09:24:05;;;;;;;4.43;3.58;;;12.00;99.90;;;;;;4998575;28;20292;-70
2021/10/05 09:26:57;;;;;;;4.40;4.00;;;12.10;99.90;;;;;;4997939;28;20134;-70
2021/10/05 09:29:27;;;;;;;3.50;3.20;;;12.20;99.90;;;;;;4997727;28;20087;-70
2021/10/05 09:32:13;;;;;;;3.80;3.50;;;12.30;99.90;;;;;;4977823;28;20056;-70
2021/10/05 09:34:53;;;;;;;3.95;3.55;;;12.50;99.90;;;;;;4998604;28;20061;-71
2021/10/05 09:37:26;;;;;;;3.60;3.30;;;12.60;99.90;;;;;;4994712;28;20647;-70
2021/10/05 09:40:11;;;;;;;3.80;3.50;;;12.70;99.90;;;;;;4996480;28;20072;-71
2021/10/05 09:42:39;;;;;;;3.85;3.55;;;12.60;99.90;;;;;;4994014;28;20056;-72
2021/10/05 09:45:09;;;;;;;3.53;3.33;;;12.70;99.90;;;;;;4983727;28;20038;-72
2021/10/05 09:47:37;;;;;;;4.40;4.10;;;12.90;99.90;;;;;;4990675;28;20342;-71
2021/10/05 09:50:20;;;;;;;4.90;4.50;;;13.10;99.90;;;;;;4978125;28;20050;-71
2021/10/05 09:52:53;;;;;;;4.45;4.13;;;13.20;99.90;;;;;;4981179;28;20086;-72
2021/10/05 09:55:22;;;;;;;5.43;5.03;;;13.40;99.90;;;;;;4979793;28;20050;-71
2021/10/05 09:57:50;;;;;;;4.65;4.45;;;13.50;99.90;;;;;;4976178;28;20070;-72
2021/10/05 10:00:18;;;;;;;4.70;4.47;;;13.70;99.90;;;;;;4973172;28;20054;-71
2021/10/05 10:02:48;;;;;;;4.68;4.38;;;13.70;99.90;;;;;;4947334;28;20062;-70
2021/10/05 10:05:25;;;;;;;4.88;4.57;;;13.80;99.90;;;;;;4995550;28;20046;-70
2021/10/05 10:07:54;;;;;;;5.28;4.82;;;13.70;99.90;;;;;;5012653;28;20100;-70
2021/10/05 10:10:25;;;;;;;5.63;5.22;;;13.60;99.90;;;;;;4995772;28;20520;-70
2021/10/05 10:13:01;;;;;;;5.57;5.18;;;13.60;99.90;;;;;;4997552;28;20056;-70
2021/10/05 10:15:34;;;;;;;4.68;4.47;;;13.60;99.90;;;;;;4967614;28;20074;-72
2021/10/05 10:18:04;;;;;;;5.57;5.28;;;13.70;99.90;;;;;;4973306;28;20188;-70
2021/10/05 10:20:34;;;;;;;5.82;5.43;;;14.00;99.90;;;;;;5005922;28;20443;-71
2021/10/05 10:23:01;;;;;;;6.13;5.75;;;14.10;99.90;;;;;;4995313;28;20085;-70
2021/10/05 10:25:33;;;;;;;5.80;5.50;;;14.20;99.90;;;;;;4995711;28;20371;-72
2021/10/05 10:28:12;;;;;;;6.10;5.70;;;14.30;99.90;;;;;;4996344;28;20058;-71
2021/10/05 10:30:50;;;;;;;6.18;5.88;;;14.20;99.90;;;;;;4994742;28;20061;-70
2021/10/05 10:33:19;;;;;;;6.13;5.63;;;14.40;99.90;;;;;;4996567;28;20446;-70
2021/10/05 10:35:53;;;;;;;6.85;6.38;;;14.60;99.90;;;;;;4994410;28;20111;-71
2021/10/05 10:38:31;;;;;;;5.72;5.43;;;14.70;99.90;;;;;;5001613;28;20174;-71
2021/10/05 10:40:58;;;;;;;7.40;7.00;;;14.90;99.90;;;;;;4986446;28;20057;-69
2021/10/05 10:43:28;;;;;;;7.03;6.63;;;15.00;99.90;;;;;;4995419;28;20073;-71
2021/10/05 10:46:01;;;;;;;6.50;6.10;;;14.70;99.90;;;;;;4993213;28;20068;-69
2021/10/05 10:48:36;;;;;;;6.30;5.90;;;14.80;99.90;;;;;;4992671;28;20046;-70
2021/10/05 10:51:18;;;;;;;6.60;6.30;;;14.70;99.90;;;;;;4958628;28;20128;-71
2021/10/05 10:53:45;;;;;;;6.55;6.15;;;14.50;99.90;;;;;;4975790;28;20046;-70
2021/10/05 10:56:31;;;;;;;7.03;6.63;;;14.50;99.90;;;;;;4994639;28;20049;-70
2021/10/05 10:59:04;;;;;;;6.40;6.15;;;14.60;99.90;;;;;;4999888;28;20050;-72
2021/10/05 11:01:35;;;;;;;6.20;5.90;;;14.50;99.90;;;;;;5011654;28;20050;-71
2021/10/05 11:04:08;;;;;;;6.32;6.03;;;14.40;99.90;;;;;;4999757;28;20147;-71
2021/10/05 11:06:35;;;;;;;6.15;5.75;;;14.50;99.90;;;;;;4998666;28;20050;-71
2021/10/05 11:09:05;;;;;;;6.97;6.45;;;14.60;99.90;;;;;;4979945;28;20055;-71
2021/10/05 11:11:38;;;;;;;6.68;6.18;;;14.60;99.90;;;;;;4962092;28;20073;-70
2021/10/05 11:14:08;;;;;;;6.60;6.30;;;14.50;99.90;;;;;;4979072;28;20535;-71
2021/10/05 11:16:37;;;;;;;6.93;6.30;;;14.50;99.90;;;;;;4986721;28;20066;-70
2021/10/05 11:19:16;;;;;;;6.85;6.35;;;14.30;99.90;;;;;;4982681;28;20531;-72
2021/10/05 11:21:45;;;;;;;6.82;6.53;;;14.30;99.90;;;;;;4999581;28;20120;-71
2021/10/05 11:24:14;;;;;;;6.90;6.50;;;14.40;99.90;;;;;;4999138;28;20486;-71
2021/10/05 11:26:44;;;;;;;6.65;6.15;;;14.40;99.90;;;;;;4989242;28;20358;-71
2021/10/05 11:29:20;;;;;;;5.72;5.43;;;14.50;99.90;;;;;;4966744;28;20545;-71
2021/10/05 11:31:50;;;;;;;5.63;5.32;;;14.50;99.90;;;;;;4999431;28;20057;-71
2021/10/05 11:34:19;;;;;;;6.25;5.93;;;14.70;99.90;;;;;;4999572;28;20574;-71
2021/10/05 11:36:47;;;;;;;6.07;5.78;;;14.90;99.90;;;;;;4997491;28;20133;-72
2021/10/05 11:39:25;;;;;;;6.53;6.20;;;15.00;99.90;;;;;;4982741;28;20057;-71
2021/10/05 11:41:58;;;;;;;6.18;5.68;;;15.20;99.90;;;;;;5004745;28;20060;-71
2021/10/05 11:44:28;;;;;;;6.53;6.22;;;15.40;99.90;;;;;;5007803;28;20054;-71
2021/10/05 11:47:03;;;;;;;7.65;7.13;;;15.60;99.90;;;;;;4978549;28;20054;-71
2021/10/05 11:49:41;;;;;;;7.60;7.20;;;15.80;99.90;;;;;;4969887;28;20272;-71
2021/10/05 11:52:15;;;;;;;7.32;7.00;;;15.80;99.90;;;;;;4996220;28;20133;-71
2021/10/05 11:54:42;;;;;;;7.68;7.22;;;15.70;99.90;;;;;;4980218;28;20265;-72
2021/10/05 11:57:16;;;;;;;17.95;7.75;;;15.40;99.90;;;;;;4996836;28;20054;-72
2021/10/05 11:59:44;;;;;;;7.03;6.60;;;15.20;99.90;;;;;;4980505;28;20076;-71
2021/10/05 12:02:21;;;;;;;7.40;7.05;;;15.20;99.90;;;;;;4994836;28;20056;-72
2021/10/05 12:04:51;;;;;;;7.32;6.90;;;15.20;99.90;;;;;;4965261;28;20054;-71
2021/10/05 12:07:28;;;;;;;7.90;7.50;;;15.30;99.90;;;;;;4982762;28;20490;-70
2021/10/05 12:10:02;;;;;;;7.97;7.57;;;15.60;99.90;;;;;;4982040;28;20076;-69
2021/10/05 12:12:35;;;;;;;8.52;8.00;;;15.70;99.90;;;;;;4998604;28;20054;-71
2021/10/05 12:15:30;;;;;;;8.85;8.15;;;16.00;99.90;;;;;;4995032;28;20049;-68
2021/10/05 12:18:09;;;;;;;9.85;9.35;;;16.00;99.90;;;;;;4982780;28;20046;-70
2021/10/05 12:21:05;;;;;;;8.15;7.75;;;15.90;99.90;;;;;;5003076;28;20042;-71
2021/10/05 12:23:33;;;;;;;9.20;8.63;;;15.70;99.90;;;;;;4979029;28;20058;-71
2021/10/05 12:26:08;;;;;;;8.32;7.82;;;15.40;99.90;;;;;;4992128;28;20046;-69
2021/10/05 12:28:36;;;;;;;8.25;7.85;;;15.20;99.90;;;;;;4997752;28;20132;-70
2021/10/05 12:31:16;;;;;;;8.93;8.32;;;15.00;99.90;;;;;;4979651;28;20309;-71
2021/10/05 12:34:02;;;;;;;8.45;7.95;;;14.80;99.90;;;;;;4999310;28;20499;-71
2021/10/05 12:36:31;;;;;;;8.38;7.90;;;14.90;99.90;;;;;;4999305;28;20050;-70
2021/10/05 12:39:19;;;;;;;8.18;7.55;;;15.10;99.90;;;;;;4965865;28;20308;-70
2021/10/05 12:42:00;;;;;;;9.65;8.82;;;15.50;99.90;;;;;;4979321;28;20123;-70
2021/10/05 12:44:33;;;;;;;8.75;8.25;;;15.80;99.90;;;;;;4992309;28;20125;-69
2021/10/05 12:47:05;;;;;;;10.10;9.50;;;16.00;99.90;;;;;;4982929;28;20528;-70
2021/10/05 12:49:33;;;;;;;10.23;9.60;;;16.10;99.90;;;;;;4991053;28;20358;-72